AIRPORT ID: VAAMI

DATE: 2024-04-25 ZULU TIME: 7.3 LOCAL TIME: 17


METAR KVAAMI 250730Z AUTO 08004KT 70/M08 A2975

ALTIMETER: A2975 Q1007

DENSITY ALT: 6600 Ft

WIND DIRECT: 80

WIND SPEED: 4 Gust

WIND CONDITIONS:

VISIBILTY: Not Available

TEMPERATURE: 158 F 70 C

DEW POINT: 17 F -8 C

HUMID: 1%

LCL: Above 5,000 feet

RADIO CHECK: 0

ADVISARIES: 0

GREETINGS: 0

CONVERSATIONS: 0